createdAt,value
2019-03-09T00:00:17.240Z,19.29
2019-03-09T00:00:57.886Z,19.28
2019-03-09T00:01:38.485Z,19.21
2019-03-09T00:02:19.334Z,19.21
2019-03-09T00:02:59.932Z,19.31
2019-03-09T00:03:40.542Z,19.22
2019-03-09T00:04:21.169Z,19.21
2019-03-09T00:05:01.868Z,19.28
2019-03-09T00:05:42.493Z,19.28
2019-03-09T00:06:23.116Z,19.25
2019-03-09T00:07:03.766Z,19.16
2019-03-09T00:07:44.422Z,19.19
2019-03-09T00:08:25.042Z,19.29
2019-03-09T00:09:05.682Z,19.21
2019-03-09T00:09:46.235Z,19.22
2019-03-09T00:10:26.827Z,19.29
2019-03-09T00:11:07.608Z,19.18
2019-03-09T00:11:58.370Z,19.16
2019-03-09T00:12:38.958Z,19.19
2019-03-09T00:13:19.627Z,19.14
2019-03-09T00:14:00.236Z,19.22
2019-03-09T00:14:40.829Z,19.23
2019-03-09T00:15:21.422Z,19.18
2019-03-09T00:16:02.050Z,19.18
2019-03-09T00:16:42.650Z,19.21
2019-03-09T00:17:23.238Z,19.19
2019-03-09T00:18:03.830Z,19.18
2019-03-09T00:18:44.443Z,19.16
2019-03-09T00:19:25.044Z,19.14
2019-03-09T00:20:06.033Z,19.18
2019-03-09T00:20:47.502Z,19.13
2019-03-09T00:21:28.723Z,19.19
2019-03-09T00:22:09.757Z,19.18
2019-03-09T00:22:50.665Z,19.16
2019-03-09T00:23:31.561Z,19.16
2019-03-09T00:24:12.212Z,19.19
2019-03-09T00:24:52.808Z,19.13
2019-03-09T00:25:33.444Z,19.19
2019-03-09T00:26:14.080Z,19.16
2019-03-09T00:26:54.684Z,19.22
2019-03-09T00:27:35.304Z,19.21
2019-03-09T00:28:15.895Z,19.18
2019-03-09T00:28:56.480Z,19.19
2019-03-09T00:29:37.070Z,19.22
2019-03-09T00:30:17.700Z,19.21
2019-03-09T00:30:58.296Z,19.22
2019-03-09T00:31:38.893Z,19.23
2019-03-09T00:32:19.496Z,19.25
2019-03-09T00:33:00.106Z,19.14
2019-03-09T00:33:40.724Z,19.11
2019-03-09T00:34:21.332Z,19.22
2019-03-09T00:35:01.928Z,19.19
2019-03-09T00:35:42.529Z,19.16
2019-03-09T00:36:23.142Z,19.16
2019-03-09T00:37:03.758Z,19.19
2019-03-09T00:37:44.372Z,19.19
2019-03-09T00:38:24.987Z,19.19
2019-03-09T00:39:05.558Z,19.26
2019-03-09T00:39:46.165Z,19.21
2019-03-09T00:40:26.765Z,19.19
2019-03-09T00:41:07.378Z,19.18
2019-03-09T00:41:47.978Z,19.19
2019-03-09T00:42:28.602Z,19.19
2019-03-09T00:43:09.190Z,19.14
2019-03-09T00:43:49.804Z,19.16
2019-03-09T00:44:30.410Z,19.13
2019-03-09T00:45:10.999Z,19.19
2019-03-09T00:45:51.572Z,19.16
2019-03-09T00:46:32.168Z,19.14
2019-03-09T00:47:12.756Z,19.19
2019-03-09T00:47:53.356Z,19.19
2019-03-09T00:48:33.936Z,19.23
2019-03-09T00:49:14.530Z,19.19
2019-03-09T00:49:55.190Z,19.16
2019-03-09T00:50:35.778Z,19.14
2019-03-09T00:51:16.366Z,19.14
2019-03-09T00:51:56.960Z,19.18
2019-03-09T00:52:37.572Z,19.19
2019-03-09T00:53:18.186Z,19.14
2019-03-09T00:53:58.814Z,19.14
2019-03-09T00:54:39.418Z,19.13
2019-03-09T00:55:19.999Z,19.14
2019-03-09T00:56:00.938Z,19.13
2019-03-09T00:56:42.218Z,19.19
2019-03-09T00:57:23.280Z,19.21
2019-03-09T00:58:03.898Z,19.13
2019-03-09T00:58:44.510Z,19.16
2019-03-09T00:59:25.112Z,19.14
2019-03-09T01:00:05.714Z,19.14
2019-03-09T01:00:46.305Z,19.13
2019-03-09T01:01:26.920Z,19.16
2019-03-09T01:02:07.528Z,19.16
2019-03-09T01:02:48.120Z,19.18
2019-03-09T01:03:28.716Z,19.16
2019-03-09T01:04:09.308Z,19.08
2019-03-09T01:04:49.915Z,19.14
2019-03-09T01:05:30.516Z,19.14
2019-03-09T01:06:11.102Z,19.11
2019-03-09T01:06:51.679Z,19.16
2019-03-09T01:07:32.265Z,19.14
2019-03-09T01:08:12.864Z,19.21
2019-03-09T01:08:53.522Z,19.11
2019-03-09T01:09:34.136Z,19.16
2019-03-09T01:10:14.748Z,19.13
2019-03-09T01:10:55.343Z,19.13
2019-03-09T01:11:35.954Z,19.06
2019-03-09T01:12:16.548Z,19.16
2019-03-09T01:12:57.196Z,19.06
2019-03-09T01:13:37.799Z,19.1
2019-03-09T01:14:18.412Z,19.11
2019-03-09T01:14:59.014Z,19.06
2019-03-09T01:15:39.608Z,19.04
2019-03-09T01:16:20.194Z,19.14
2019-03-09T01:17:00.796Z,19.13
2019-03-09T01:17:41.373Z,19.14
2019-03-09T01:18:21.962Z,19.11
2019-03-09T01:19:02.574Z,19.06
2019-03-09T01:19:43.165Z,19.1
2019-03-09T01:20:23.788Z,19.1
2019-03-09T01:21:04.407Z,19.14
2019-03-09T01:21:44.990Z,19.1
2019-03-09T01:22:25.597Z,19.08
2019-03-09T01:23:06.210Z,19.13
2019-03-09T01:23:46.820Z,19.06
2019-03-09T01:24:27.450Z,19.07
2019-03-09T01:25:08.040Z,19.02
2019-03-09T01:25:48.645Z,19.16
2019-03-09T01:26:29.242Z,19.18
2019-03-09T01:27:09.878Z,19.02
2019-03-09T01:27:50.476Z,19.02
2019-03-09T01:28:31.071Z,19.13
2019-03-09T01:29:11.663Z,19.13
2019-03-09T01:29:52.260Z,19.11
2019-03-09T01:30:32.854Z,19.14
2019-03-09T01:31:13.506Z,19.1
2019-03-09T01:31:54.106Z,19.04
2019-03-09T01:32:34.704Z,19.13
2019-03-09T01:33:15.288Z,19.1
2019-03-09T01:33:55.868Z,19.08
2019-03-09T01:34:36.464Z,19.1
2019-03-09T01:35:17.046Z,19.07
2019-03-09T01:35:57.639Z,19.1
2019-03-09T01:36:38.220Z,19.08
2019-03-09T01:37:18.804Z,19.11
2019-03-09T01:37:59.404Z,19.1
2019-03-09T01:38:40.010Z,19.08
2019-03-09T01:39:20.621Z,19.11
2019-03-09T01:40:01.233Z,19.04
2019-03-09T01:40:41.823Z,19.11
2019-03-09T01:41:22.430Z,19.08
2019-03-09T01:42:03.037Z,19.1
2019-03-09T01:42:43.610Z,19.1
2019-03-09T01:43:24.208Z,19.14
2019-03-09T01:44:04.788Z,19.06
2019-03-09T01:44:45.378Z,19.07
2019-03-09T01:45:25.988Z,19.08
2019-03-09T01:46:06.577Z,19.1
2019-03-09T01:46:47.178Z,19.14
2019-03-09T01:47:27.780Z,19.06
2019-03-09T01:48:08.387Z,19
2019-03-09T01:48:48.980Z,19.06
2019-03-09T01:49:29.582Z,19.07
2019-03-09T01:50:10.179Z,19.08
2019-03-09T01:50:50.774Z,19.08
2019-03-09T01:51:31.380Z,19.04
2019-03-09T01:52:11.970Z,19.04
2019-03-09T01:52:52.590Z,19.04
2019-03-09T01:53:36.596Z,19.07
2019-03-09T01:54:13.790Z,19.08
2019-03-09T01:54:54.410Z,19.02
2019-03-09T01:55:35.010Z,19.04
2019-03-09T01:56:15.599Z,19.07
2019-03-09T01:56:56.182Z,19.11
2019-03-09T01:57:36.786Z,19
2019-03-09T01:58:17.378Z,19.04
2019-03-09T01:58:57.966Z,19
2019-03-09T01:59:38.592Z,19.13
2019-03-09T02:00:19.192Z,19.13
2019-03-09T02:00:59.787Z,19.06
2019-03-09T02:01:40.377Z,19.06
2019-03-09T02:02:20.972Z,19.04
2019-03-09T02:03:01.567Z,19.06
2019-03-09T02:03:42.164Z,19.06
2019-03-09T02:04:22.743Z,19.07
2019-03-09T02:05:03.354Z,19
2019-03-09T02:05:43.944Z,19
2019-03-09T02:06:24.538Z,19.04
2019-03-09T02:07:05.126Z,19.07
2019-03-09T02:07:45.711Z,18.99
2019-03-09T02:08:26.304Z,19.07
2019-03-09T02:09:06.915Z,19
2019-03-09T02:09:47.538Z,19.06
2019-03-09T02:10:28.137Z,18.99
2019-03-09T02:11:08.736Z,18.98
2019-03-09T02:11:49.339Z,19.08
2019-03-09T02:12:29.962Z,19.04
2019-03-09T02:13:10.542Z,19.02
2019-03-09T02:13:51.130Z,19.06
2019-03-09T02:14:31.722Z,19.07
2019-03-09T02:15:12.364Z,19
2019-03-09T02:15:52.942Z,19.06
2019-03-09T02:16:33.573Z,19.02
2019-03-09T02:17:14.166Z,19.04
2019-03-09T02:17:54.774Z,19.02
2019-03-09T02:18:35.387Z,19
2019-03-09T02:19:15.999Z,19.04
2019-03-09T02:19:56.584Z,19.02
2019-03-09T02:20:37.168Z,18.99
2019-03-09T02:21:17.763Z,19.04
2019-03-09T02:21:58.360Z,18.95
2019-03-09T02:22:38.982Z,19.02
2019-03-09T02:23:19.579Z,18.99
2019-03-09T02:24:00.170Z,18.94
2019-03-09T02:24:40.764Z,19.04
2019-03-09T02:25:21.358Z,18.94
2019-03-09T02:26:02.016Z,18.94
2019-03-09T02:26:42.603Z,18.95
2019-03-09T02:27:23.320Z,19.02
2019-03-09T02:28:03.912Z,18.99
2019-03-09T02:28:44.510Z,19.02
2019-03-09T02:29:25.110Z,18.95
2019-03-09T02:30:05.701Z,18.99
2019-03-09T02:30:46.294Z,19.04
2019-03-09T02:31:26.884Z,18.95
2019-03-09T02:32:07.466Z,18.92
2019-03-09T02:32:48.083Z,18.9
2019-03-09T02:33:28.715Z,18.92
2019-03-09T02:34:09.310Z,18.98
2019-03-09T02:34:49.899Z,18.99
2019-03-09T02:35:30.485Z,18.95
2019-03-09T02:36:11.091Z,18.95
2019-03-09T02:36:51.673Z,19.02
2019-03-09T02:37:32.282Z,18.91
2019-03-09T02:38:12.873Z,18.91
2019-03-09T02:38:53.486Z,18.99
2019-03-09T02:39:34.067Z,19
2019-03-09T02:40:14.665Z,19.04
2019-03-09T02:40:55.252Z,18.98
2019-03-09T02:41:35.836Z,19
2019-03-09T02:42:16.424Z,18.94
2019-03-09T02:42:57.034Z,19
2019-03-09T02:43:37.645Z,18.95
2019-03-09T02:44:18.256Z,18.95
2019-03-09T02:44:58.849Z,18.98
2019-03-09T02:45:39.464Z,19.04
2019-03-09T02:46:20.058Z,18.98
2019-03-09T02:47:00.652Z,18.94
2019-03-09T02:47:41.259Z,18.95
2019-03-09T02:48:21.853Z,18.94
2019-03-09T02:49:02.445Z,18.92
2019-03-09T02:49:43.045Z,19.04
2019-03-09T02:50:23.635Z,19.04
2019-03-09T02:51:04.225Z,18.9
2019-03-09T02:51:44.808Z,18.91
2019-03-09T02:52:25.416Z,18.92
2019-03-09T02:53:05.995Z,18.94
2019-03-09T02:53:46.627Z,18.98
2019-03-09T02:54:27.223Z,18.92
2019-03-09T02:55:07.826Z,18.94
2019-03-09T02:55:48.405Z,18.9
2019-03-09T02:56:28.991Z,19
2019-03-09T02:57:09.575Z,18.91
2019-03-09T02:57:50.166Z,18.92
2019-03-09T02:58:30.751Z,18.94
2019-03-09T02:59:11.337Z,18.91
2019-03-09T02:59:51.939Z,18.92
2019-03-09T03:00:32.524Z,18.95
2019-03-09T03:01:13.186Z,18.91
2019-03-09T03:01:53.812Z,18.91
2019-03-09T03:02:34.384Z,18.92
2019-03-09T03:03:14.970Z,18.95
2019-03-09T03:03:55.586Z,18.98
2019-03-09T03:04:36.211Z,18.91
2019-03-09T03:05:16.818Z,18.98
2019-03-09T03:05:57.402Z,18.94
2019-03-09T03:06:38.000Z,18.9
2019-03-09T03:07:18.605Z,18.92
2019-03-09T03:07:59.193Z,18.94
2019-03-09T03:08:39.788Z,18.95
2019-03-09T03:09:20.382Z,18.91
2019-03-09T03:10:01.006Z,18.99
2019-03-09T03:10:41.593Z,18.91
2019-03-09T03:11:22.188Z,18.95
2019-03-09T03:12:02.777Z,18.92
2019-03-09T03:12:43.377Z,18.91
2019-03-09T03:13:23.975Z,18.92
2019-03-09T03:14:04.590Z,18.9
2019-03-09T03:14:45.186Z,18.87
2019-03-09T03:15:25.779Z,18.92
2019-03-09T03:16:06.360Z,18.9
2019-03-09T03:16:46.956Z,18.94
2019-03-09T03:17:27.542Z,18.91
2019-03-09T03:18:08.134Z,18.94
2019-03-09T03:18:48.770Z,18.9
2019-03-09T03:19:29.384Z,18.92
2019-03-09T03:20:09.990Z,18.9
2019-03-09T03:20:50.559Z,18.91
2019-03-09T03:21:31.150Z,18.9
2019-03-09T03:22:11.754Z,18.92
2019-03-09T03:22:52.371Z,18.88
2019-03-09T03:23:32.976Z,18.92
2019-03-09T03:24:13.579Z,18.9
2019-03-09T03:24:54.185Z,18.92
2019-03-09T03:25:34.775Z,18.9
2019-03-09T03:26:15.369Z,18.92
2019-03-09T03:26:55.975Z,18.9
2019-03-09T03:27:36.620Z,18.91
2019-03-09T03:28:17.221Z,18.9
2019-03-09T03:28:57.805Z,18.91
2019-03-09T03:29:38.432Z,18.9
2019-03-09T03:30:19.017Z,18.9
2019-03-09T03:30:59.624Z,18.9
2019-03-09T03:31:40.217Z,18.9
2019-03-09T03:32:20.895Z,18.9
2019-03-09T03:33:01.424Z,18.9
2019-03-09T03:33:42.001Z,18.87
2019-03-09T03:34:22.594Z,18.88
2019-03-09T03:35:03.200Z,18.91
2019-03-09T03:35:43.780Z,18.9
2019-03-09T03:36:24.386Z,18.92
2019-03-09T03:37:04.982Z,18.9
2019-03-09T03:37:45.591Z,18.9
2019-03-09T03:38:26.185Z,18.92
2019-03-09T03:39:06.795Z,18.88
2019-03-09T03:39:47.403Z,18.9
2019-03-09T03:40:28.000Z,18.9
2019-03-09T03:41:08.588Z,18.92
2019-03-09T03:41:49.219Z,18.9
2019-03-09T03:42:29.811Z,18.9
2019-03-09T03:43:10.407Z,18.88
2019-03-09T03:43:51.027Z,18.9
2019-03-09T03:44:31.609Z,18.91
2019-03-09T03:45:12.225Z,18.84
2019-03-09T03:45:52.813Z,18.9
2019-03-09T03:46:33.419Z,18.87
2019-03-09T03:47:14.087Z,18.88
2019-03-09T03:47:54.695Z,18.81
2019-03-09T03:48:35.288Z,18.9
2019-03-09T03:49:15.881Z,18.88
2019-03-09T03:49:56.480Z,18.87
2019-03-09T03:50:37.081Z,18.9
2019-03-09T03:51:17.702Z,18.81
2019-03-09T03:51:58.288Z,18.87
2019-03-09T03:52:38.881Z,18.85
2019-03-09T03:53:19.466Z,18.9
2019-03-09T03:54:00.057Z,18.87
2019-03-09T03:54:40.651Z,18.81
2019-03-09T03:55:21.227Z,18.88
2019-03-09T03:56:01.865Z,18.84
2019-03-09T03:56:42.396Z,18.85
2019-03-09T03:57:22.992Z,18.85
2019-03-09T03:58:03.607Z,18.9
2019-03-09T03:58:44.211Z,18.81
2019-03-09T03:59:24.811Z,18.76
2019-03-09T04:00:05.424Z,18.88
2019-03-09T04:00:46.031Z,18.88
2019-03-09T04:01:26.626Z,18.81
2019-03-09T04:02:07.209Z,18.78
2019-03-09T04:02:47.793Z,18.8
2019-03-09T04:03:28.400Z,18.78
2019-03-09T04:04:08.979Z,18.87
2019-03-09T04:04:49.575Z,18.94
2019-03-09T04:05:30.172Z,18.85
2019-03-09T04:06:10.767Z,18.87
2019-03-09T04:06:51.365Z,18.81
2019-03-09T04:07:31.951Z,18.9
2019-03-09T04:08:12.539Z,18.81
2019-03-09T04:08:53.128Z,18.78
2019-03-09T04:09:33.722Z,18.8
2019-03-09T04:10:14.332Z,18.78
2019-03-09T04:10:54.933Z,18.91
2019-03-09T04:11:35.519Z,18.8
2019-03-09T04:12:16.109Z,18.9
2019-03-09T04:12:56.711Z,18.8
2019-03-09T04:13:37.287Z,18.85
2019-03-09T04:14:17.881Z,18.85
2019-03-09T04:14:58.459Z,18.81
2019-03-09T04:15:39.052Z,18.81
2019-03-09T04:16:19.670Z,18.82
2019-03-09T04:17:00.259Z,18.84
2019-03-09T04:17:40.847Z,18.82
2019-03-09T04:18:21.473Z,18.8
2019-03-09T04:19:02.060Z,18.73
2019-03-09T04:19:42.670Z,18.85
2019-03-09T04:20:23.233Z,18.82
2019-03-09T04:21:03.833Z,18.85
2019-03-09T04:21:44.415Z,18.8
2019-03-09T04:22:24.999Z,18.82
2019-03-09T04:23:05.606Z,18.76
2019-03-09T04:23:46.189Z,18.8
2019-03-09T04:24:26.766Z,18.85
2019-03-09T04:25:07.415Z,18.82
2019-03-09T04:25:48.007Z,18.82
2019-03-09T04:26:28.617Z,18.87
2019-03-09T04:27:09.275Z,18.8
2019-03-09T04:27:49.879Z,18.78
2019-03-09T04:28:30.493Z,18.87
2019-03-09T04:29:11.111Z,18.85
2019-03-09T04:29:51.703Z,18.76
2019-03-09T04:30:32.290Z,18.78
2019-03-09T04:31:12.877Z,18.85
2019-03-09T04:31:53.473Z,18.82
2019-03-09T04:32:34.065Z,18.82
2019-03-09T04:33:14.653Z,18.76
2019-03-09T04:33:55.250Z,18.76
2019-03-09T04:34:35.845Z,18.81
2019-03-09T04:35:16.435Z,18.82
2019-03-09T04:35:57.027Z,18.85
2019-03-09T04:36:37.619Z,18.82
2019-03-09T04:37:18.219Z,18.81
2019-03-09T04:37:58.809Z,18.82
2019-03-09T04:38:39.413Z,18.81
2019-03-09T04:39:20.005Z,18.78
2019-03-09T04:40:00.599Z,18.85
2019-03-09T04:40:41.182Z,18.82
2019-03-09T04:41:21.781Z,18.8
2019-03-09T04:42:02.364Z,18.81
2019-03-09T04:42:42.991Z,18.76
2019-03-09T04:43:23.585Z,18.85
2019-03-09T04:44:04.169Z,18.85
2019-03-09T04:44:44.801Z,18.87
2019-03-09T04:45:25.389Z,18.76
2019-03-09T04:46:06.001Z,18.81
2019-03-09T04:46:46.592Z,18.84
2019-03-09T04:47:27.189Z,18.81
2019-03-09T04:48:07.778Z,18.73
2019-03-09T04:48:48.384Z,18.73
2019-03-09T04:49:29.004Z,18.75
2019-03-09T04:50:09.589Z,18.78
2019-03-09T04:50:50.183Z,18.81
2019-03-09T04:51:30.786Z,18.84
2019-03-09T04:52:11.366Z,18.75
2019-03-09T04:52:51.966Z,18.8
2019-03-09T04:53:32.587Z,18.82
2019-03-09T04:54:13.171Z,18.73
2019-03-09T04:54:53.747Z,18.76
2019-03-09T04:55:34.343Z,18.76
2019-03-09T04:56:14.947Z,18.84
2019-03-09T04:56:55.544Z,18.75
2019-03-09T04:57:36.147Z,18.81
2019-03-09T04:58:16.753Z,18.81
2019-03-09T04:58:57.313Z,18.76
2019-03-09T04:59:37.900Z,18.76
2019-03-09T05:00:18.512Z,18.75
2019-03-09T05:00:59.508Z,18.78
2019-03-09T05:01:40.239Z,18.78
2019-03-09T05:02:20.839Z,18.76
2019-03-09T05:03:01.427Z,18.76
2019-03-09T05:03:42.069Z,18.73
2019-03-09T05:04:22.682Z,18.75
2019-03-09T05:05:03.283Z,18.81
2019-03-09T05:05:43.859Z,18.8
2019-03-09T05:06:24.433Z,18.76
2019-03-09T05:07:05.071Z,18.75
2019-03-09T05:07:45.648Z,18.73
2019-03-09T05:08:26.257Z,18.75
2019-03-09T05:09:06.860Z,18.81
2019-03-09T05:09:47.446Z,18.78
2019-03-09T05:10:28.200Z,18.73
2019-03-09T05:11:08.823Z,18.76
2019-03-09T05:11:49.409Z,18.73
2019-03-09T05:12:29.997Z,18.75
2019-03-09T05:13:10.600Z,18.78
2019-03-09T05:13:51.183Z,18.75
2019-03-09T05:14:31.775Z,18.76
2019-03-09T05:15:12.363Z,18.72
2019-03-09T05:15:52.965Z,18.81
2019-03-09T05:16:33.554Z,18.76
2019-03-09T05:17:14.148Z,18.76
2019-03-09T05:17:54.773Z,18.75
2019-03-09T05:18:35.371Z,18.81
2019-03-09T05:19:15.971Z,18.75
2019-03-09T05:19:56.579Z,18.76
2019-03-09T05:20:37.163Z,18.75
2019-03-09T05:21:17.750Z,18.78
2019-03-09T05:21:58.333Z,18.75
2019-03-09T05:22:38.925Z,18.73
2019-03-09T05:23:19.513Z,18.73
2019-03-09T05:24:00.105Z,18.78
2019-03-09T05:24:40.697Z,18.8
2019-03-09T05:25:21.323Z,18.76
2019-03-09T05:26:01.913Z,18.8
2019-03-09T05:26:42.509Z,18.78
2019-03-09T05:27:23.095Z,18.73
2019-03-09T05:28:03.693Z,18.73
2019-03-09T05:28:44.279Z,18.78
2019-03-09T05:29:24.897Z,18.72
2019-03-09T05:30:05.500Z,18.75
2019-03-09T05:30:46.094Z,18.73
2019-03-09T05:31:26.681Z,18.76
2019-03-09T05:32:07.277Z,18.73
2019-03-09T05:32:47.875Z,18.73
2019-03-09T05:33:28.459Z,18.69
2019-03-09T05:34:09.055Z,18.66
2019-03-09T05:34:49.653Z,18.75
2019-03-09T05:35:30.261Z,18.76
2019-03-09T05:36:10.854Z,18.78
2019-03-09T05:36:51.447Z,18.8
2019-03-09T05:37:32.039Z,18.69
2019-03-09T05:38:12.629Z,18.73
2019-03-09T05:38:53.233Z,18.75
2019-03-09T05:39:33.823Z,18.78
2019-03-09T05:40:14.407Z,18.73
2019-03-09T05:40:55.027Z,18.75
2019-03-09T05:41:35.630Z,18.76
2019-03-09T05:42:16.228Z,18.73
2019-03-09T05:42:56.813Z,18.72
2019-03-09T05:43:37.395Z,18.75
2019-03-09T05:44:17.987Z,18.75
2019-03-09T05:44:58.581Z,18.76
2019-03-09T05:45:39.176Z,18.78
2019-03-09T05:46:19.777Z,18.78
2019-03-09T05:47:00.371Z,18.72
2019-03-09T05:47:40.963Z,18.67
2019-03-09T05:48:21.555Z,18.66
2019-03-09T05:49:02.165Z,18.76
2019-03-09T05:49:42.750Z,18.7
2019-03-09T05:50:23.323Z,18.8
2019-03-09T05:51:03.923Z,18.66
2019-03-09T05:51:44.509Z,18.75
2019-03-09T05:52:25.121Z,18.7
2019-03-09T05:53:05.701Z,18.75
2019-03-09T05:53:46.280Z,18.73
2019-03-09T05:54:26.875Z,18.76
2019-03-09T05:55:07.465Z,18.63
2019-03-09T05:55:48.069Z,18.73
2019-03-09T05:56:28.664Z,18.84
2019-03-09T05:57:09.253Z,18.7
2019-03-09T05:57:49.845Z,18.65
2019-03-09T05:58:30.479Z,18.75
2019-03-09T05:59:11.071Z,18.75
2019-03-09T05:59:51.658Z,18.72
2019-03-09T06:00:32.237Z,18.72
2019-03-09T06:01:12.827Z,18.67
2019-03-09T06:01:53.427Z,18.72
2019-03-09T06:02:34.031Z,18.66
2019-03-09T06:03:14.617Z,18.65
2019-03-09T06:03:55.209Z,18.76
2019-03-09T06:04:35.791Z,18.69
2019-03-09T06:05:16.375Z,18.7
2019-03-09T06:05:56.964Z,18.66
2019-03-09T06:06:37.541Z,18.63
2019-03-09T06:07:18.141Z,18.66
2019-03-09T06:07:58.725Z,18.65
2019-03-09T06:08:39.320Z,18.65
2019-03-09T06:09:19.905Z,18.69
2019-03-09T06:10:00.532Z,18.7
2019-03-09T06:10:41.114Z,18.76
2019-03-09T06:11:21.726Z,18.72
2019-03-09T06:12:02.323Z,18.72
2019-03-09T06:12:42.919Z,18.67
2019-03-09T06:13:23.515Z,18.65
2019-03-09T06:14:04.112Z,18.72
2019-03-09T06:14:44.724Z,18.76
2019-03-09T06:15:25.313Z,18.73
2019-03-09T06:16:05.901Z,18.76
2019-03-09T06:16:46.513Z,18.7
2019-03-09T06:17:27.100Z,18.73
2019-03-09T06:18:07.694Z,18.8
2019-03-09T06:18:48.289Z,18.75
2019-03-09T06:19:28.891Z,18.7
2019-03-09T06:20:09.477Z,18.75
2019-03-09T06:20:50.078Z,18.7
2019-03-09T06:21:30.691Z,18.7
2019-03-09T06:22:11.283Z,18.7
2019-03-09T06:22:51.883Z,18.78
2019-03-09T06:23:32.472Z,18.66
2019-03-09T06:24:13.116Z,18.7
2019-03-09T06:24:53.705Z,18.8
2019-03-09T06:25:34.304Z,18.69
2019-03-09T06:26:14.899Z,18.73
2019-03-09T06:26:55.507Z,18.67
2019-03-09T06:27:36.101Z,18.76
2019-03-09T06:28:16.712Z,18.72
2019-03-09T06:28:57.301Z,18.76
2019-03-09T06:29:37.891Z,18.72
2019-03-09T06:30:18.475Z,18.78
2019-03-09T06:30:59.079Z,18.67
2019-03-09T06:31:39.669Z,18.75
2019-03-09T06:32:20.247Z,18.72
2019-03-09T06:33:00.831Z,18.73
2019-03-09T06:33:41.408Z,18.65
2019-03-09T06:34:21.995Z,18.8
2019-03-09T06:35:02.591Z,18.87
2019-03-09T06:35:43.204Z,18.7
2019-03-09T06:36:23.790Z,18.75
2019-03-09T06:37:04.383Z,18.75
2019-03-09T06:37:44.989Z,18.73
2019-03-09T06:38:25.582Z,18.75
2019-03-09T06:39:06.180Z,18.73
2019-03-09T06:39:46.787Z,18.73
2019-03-09T06:40:27.363Z,18.75
2019-03-09T06:41:07.949Z,18.78
2019-03-09T06:41:48.542Z,18.78
2019-03-09T06:42:29.120Z,18.8
2019-03-09T06:43:09.704Z,18.78
2019-03-09T06:43:50.295Z,18.75
2019-03-09T06:44:30.877Z,18.76
2019-03-09T06:45:11.492Z,18.87
2019-03-09T06:45:52.089Z,18.75
2019-03-09T06:46:32.694Z,18.73
2019-03-09T06:47:13.285Z,18.73
2019-03-09T06:47:53.877Z,18.73
2019-03-09T06:48:34.465Z,18.73
2019-03-09T06:49:15.067Z,18.75
2019-03-09T06:49:55.661Z,18.8
2019-03-09T06:50:36.262Z,18.76
2019-03-09T06:51:16.865Z,18.73
2019-03-09T06:51:57.463Z,18.76
2019-03-09T06:52:38.077Z,18.78
2019-03-09T06:53:18.673Z,18.76
2019-03-09T06:53:59.281Z,18.73
2019-03-09T06:54:39.877Z,18.75
2019-03-09T06:55:20.470Z,18.73
2019-03-09T06:56:01.077Z,18.76
2019-03-09T06:56:41.681Z,18.78
2019-03-09T06:57:22.275Z,18.81
2019-03-09T06:58:02.869Z,18.76
2019-03-09T06:58:43.465Z,18.82
2019-03-09T06:59:24.065Z,18.75
2019-03-09T07:00:04.641Z,18.75
2019-03-09T07:00:45.233Z,18.84
2019-03-09T07:01:25.827Z,18.84
2019-03-09T07:02:06.426Z,18.78
2019-03-09T07:02:47.015Z,18.84
2019-03-09T07:03:27.595Z,18.81
2019-03-09T07:04:08.181Z,18.81
2019-03-09T07:04:48.773Z,18.78
2019-03-09T07:05:29.359Z,18.82
2019-03-09T07:06:09.947Z,18.82
2019-03-09T07:06:50.545Z,18.78
2019-03-09T07:07:31.127Z,18.78
2019-03-09T07:08:11.719Z,18.8
2019-03-09T07:08:52.309Z,18.78
2019-03-09T07:09:32.893Z,18.78
2019-03-09T07:10:13.501Z,18.8
2019-03-09T07:10:54.097Z,18.85
2019-03-09T07:11:34.681Z,18.78
2019-03-09T07:12:15.269Z,18.81
2019-03-09T07:12:55.849Z,18.81
2019-03-09T07:13:36.449Z,18.81
2019-03-09T07:14:17.046Z,18.85
2019-03-09T07:14:57.640Z,18.78
2019-03-09T07:15:38.226Z,18.85
2019-03-09T07:16:18.827Z,18.81
2019-03-09T07:16:59.471Z,18.81
2019-03-09T07:17:40.068Z,18.8
2019-03-09T07:18:20.667Z,18.84
2019-03-09T07:19:01.263Z,18.81
2019-03-09T07:19:41.840Z,18.81
2019-03-09T07:20:22.427Z,18.81
2019-03-09T07:21:03.030Z,18.81
2019-03-09T07:21:43.629Z,18.8
2019-03-09T07:22:24.255Z,18.8
2019-03-09T07:23:04.893Z,18.84
2019-03-09T07:23:45.493Z,18.82
2019-03-09T07:24:26.078Z,18.85
2019-03-09T07:25:06.683Z,18.81
2019-03-09T07:25:47.275Z,18.73
2019-03-09T07:26:27.880Z,18.85
2019-03-09T07:27:08.471Z,18.82
2019-03-09T07:27:49.059Z,18.82
2019-03-09T07:28:29.655Z,18.8
2019-03-09T07:29:10.265Z,18.88
2019-03-09T07:29:50.855Z,18.92
2019-03-09T07:31:30.743Z,18.94
2019-03-09T07:32:11.345Z,18.92
2019-03-09T07:32:51.949Z,18.98
2019-03-09T07:33:32.537Z,19.06
2019-03-09T07:34:13.125Z,19.02
2019-03-09T07:34:53.721Z,19.04
2019-03-09T07:35:34.341Z,19.02
2019-03-09T07:36:14.963Z,19
2019-03-09T07:36:55.544Z,19.04
2019-03-09T07:37:37.000Z,19.06
2019-03-09T07:38:16.723Z,19.04
2019-03-09T07:38:57.317Z,19.08
2019-03-09T07:39:37.915Z,19.06
2019-03-09T07:40:18.511Z,18.94
2019-03-09T07:40:59.103Z,19.06
2019-03-09T07:41:39.685Z,19.07
2019-03-09T07:42:20.265Z,19.02
2019-03-09T07:43:00.855Z,18.95
2019-03-09T07:43:41.437Z,18.99
2019-03-09T07:44:22.028Z,19.07
2019-03-09T07:45:02.613Z,18.95
2019-03-09T07:45:43.205Z,19.04
2019-03-09T07:46:24.043Z,18.95
2019-03-09T07:47:04.639Z,18.91
2019-03-09T07:47:45.223Z,19.02
2019-03-09T07:48:25.818Z,18.94
2019-03-09T07:49:06.411Z,18.98
2019-03-09T07:49:47.863Z,18.91
2019-03-09T07:50:28.459Z,19.02
2019-03-09T07:51:09.043Z,18.94
2019-03-09T07:51:49.633Z,18.92
2019-03-09T07:52:30.219Z,18.95
2019-03-09T07:53:10.835Z,19
2019-03-09T07:53:51.451Z,19
2019-03-09T07:54:32.079Z,18.99
2019-03-09T07:55:12.682Z,18.9
2019-03-09T07:55:53.283Z,18.95
2019-03-09T07:56:33.879Z,18.92
2019-03-09T07:57:14.475Z,18.91
2019-03-09T07:57:55.091Z,18.92
2019-03-09T07:58:35.705Z,18.91
2019-03-09T07:59:16.302Z,18.94
2019-03-09T07:59:56.877Z,19
2019-03-09T08:00:37.456Z,18.95
2019-03-09T08:01:18.036Z,18.91
2019-03-09T08:01:58.623Z,18.91
2019-03-09T08:02:39.221Z,18.91
2019-03-09T08:03:19.827Z,18.95
2019-03-09T08:04:00.466Z,18.94
2019-03-09T08:04:41.071Z,18.88
2019-03-09T08:05:21.681Z,18.88
2019-03-09T08:06:02.278Z,18.9
2019-03-09T08:06:42.877Z,18.91
2019-03-09T08:07:23.469Z,18.91
2019-03-09T08:08:04.065Z,18.92
2019-03-09T08:08:44.691Z,18.94
2019-03-09T08:09:25.281Z,18.98
2019-03-09T08:10:05.877Z,18.95
2019-03-09T08:10:46.484Z,18.92
2019-03-09T08:11:27.121Z,18.91
2019-03-09T08:12:07.733Z,18.91
2019-03-09T08:12:48.337Z,18.91
2019-03-09T08:13:28.947Z,18.94
2019-03-09T08:14:09.547Z,18.95
2019-03-09T08:14:50.270Z,18.92
2019-03-09T08:15:30.940Z,18.9
2019-03-09T08:16:11.624Z,18.94
2019-03-09T08:16:52.180Z,18.88
2019-03-09T08:17:32.817Z,18.85
2019-03-09T08:18:13.415Z,18.9
2019-03-09T08:18:54.009Z,18.94
2019-03-09T08:19:34.606Z,18.92
2019-03-09T08:20:15.203Z,18.91
2019-03-09T08:20:55.813Z,18.91
2019-03-09T08:21:36.490Z,18.91
2019-03-09T08:22:20.227Z,18.9
2019-03-09T08:23:00.849Z,18.92
2019-03-09T08:23:41.483Z,18.92
2019-03-09T08:24:22.069Z,18.88
2019-03-09T08:25:10.069Z,18.91
2019-03-09T08:25:50.722Z,18.94
2019-03-09T08:26:33.738Z,18.94
2019-03-09T08:27:14.347Z,18.91
2019-03-09T08:27:55.404Z,18.92
2019-03-09T08:28:36.050Z,18.91
2019-03-09T08:29:16.705Z,18.91
2019-03-09T08:29:57.329Z,18.91
2019-03-09T08:30:38.315Z,18.94
2019-03-09T08:31:20.669Z,19
2019-03-09T08:32:01.361Z,18.92
2019-03-09T08:32:41.973Z,18.9
2019-03-09T08:33:23.224Z,18.94
2019-03-09T08:34:04.235Z,18.92
2019-03-09T08:34:45.302Z,18.87
2019-03-09T08:35:27.552Z,18.92
2019-03-09T08:36:08.129Z,18.98
2019-03-09T08:36:48.756Z,18.94
2019-03-09T08:37:29.363Z,18.94
2019-03-09T08:38:09.949Z,18.94
2019-03-09T08:38:50.557Z,18.9
2019-03-09T08:39:31.213Z,18.94
2019-03-09T08:40:11.823Z,18.91
2019-03-09T08:40:52.412Z,18.91
2019-03-09T08:41:33.032Z,18.94
2019-03-09T08:42:13.610Z,18.94
2019-03-09T08:42:54.235Z,18.92
2019-03-09T08:43:34.838Z,18.94
2019-03-09T08:44:15.443Z,18.94
2019-03-09T08:44:56.001Z,18.9
2019-03-09T08:45:36.703Z,18.94
2019-03-09T08:46:17.297Z,18.95
2019-03-09T08:46:57.911Z,18.91
2019-03-09T08:47:38.537Z,18.94